메인 페이지
METAR-TAF:

METAR-TAF

공항 :

Bartlesville, 오클라호마, 미국

위도: 36-46-06N, 경도: 096-01-34W, 고도: 217m

현재 날씨관측

예보는 38분 전, 15:53시(UTC)에 발표되었습니다.
동북동4kt
온도 -4°C
습도 68%
기압 1038 hPa
시정: 16.1km
맑음

METAR: KBVO 201553Z AUTO 07004KT 10SM CLR M04/M09 A3066 RMK AO2 SLP386 T10441094

시각: 10:31 (16:31 UTC)

예보

예보는 5 시간 7분 전, 11:24시(UTC)에 발표되었습니다.
예보 대상 시간: 20일 12시부터 21일 12시까지 (UTC)
여러 방향의 바람 3kt
시정: 10km
맑음
20일 2100시부터 (UTC)
북동7kt
시정: 10km
맑음

TAF: KBVO 201124Z 2012/2112 VRB03KT P6SM SKC FM202100 04007KT P6SM SKC

4,000개 이상의 공항 관측 자료 및 예보 (METAR 및 TAF 보고).

지도상에서 검색 가능한 기상관측소가 노란 점과 빨간 점으로 표시되어 있습니다.

기상관측소 명을 보려면 표시 위로 마우스를 이동하세요.

날씨 관측과 예보를 보려면 클릭하세요.

지도 변경 : 확대하려면 엑스 표시가 있는 녹색 버튼, 축소하려면 빼기 표시가 있는 녹색 버튼, 다음 페이지의 지도를 보려면 녹색 화살표를 클릭하세요.


METAR-TAF: